createdAt,value
2018-08-24T00:00:29.368Z,100798.41
2018-08-24T00:02:57.071Z,100797.19
2018-08-24T00:05:24.666Z,100794.61
2018-08-24T00:07:52.153Z,100788.49
2018-08-24T00:10:19.794Z,100784.58
2018-08-24T00:12:47.265Z,100774.47
2018-08-24T00:15:14.736Z,100771.40
2018-08-24T00:17:46.395Z,100770.68
2018-08-24T00:20:13.874Z,100771.63
2018-08-24T00:22:41.454Z,100765.90
2018-08-24T00:25:09.198Z,100765.03
2018-08-24T00:27:36.712Z,100761.52
2018-08-24T00:30:04.434Z,100755.76
2018-08-24T00:32:32.174Z,100754.42
2018-08-24T00:34:59.623Z,100759.06
2018-08-24T00:37:27.312Z,100752.36
2018-08-24T00:39:54.938Z,100743.91
2018-08-24T00:42:22.421Z,100737.33
2018-08-24T00:44:49.865Z,100736.09
2018-08-24T00:47:17.617Z,100734.75
2018-08-24T00:49:45.030Z,100726.35
2018-08-24T00:52:12.433Z,100727.30
2018-08-24T00:54:40.051Z,100719.88
2018-08-24T00:57:07.562Z,100719.98
2018-08-24T00:59:35.030Z,100723.14
2018-08-24T01:02:02.917Z,100720.46
2018-08-24T01:04:35.337Z,100720.10
2018-08-24T01:07:09.840Z,100718.87
2018-08-24T01:09:37.837Z,100714.45
2018-08-24T01:12:09.767Z,100713.51
2018-08-24T01:14:37.568Z,100718.98
2018-08-24T01:17:10.836Z,100722.61
2018-08-24T01:19:38.502Z,100724.94
2018-08-24T01:22:06.017Z,100728.09
2018-08-24T01:24:33.601Z,100730.41
2018-08-24T01:27:02.575Z,100722.48
2018-08-24T01:29:30.801Z,100725.16
2018-08-24T01:31:58.279Z,100727.09
2018-08-24T01:34:25.918Z,100724.99
2018-08-24T01:36:53.339Z,100729.59
2018-08-24T01:39:21.119Z,100723.12
2018-08-24T01:41:48.742Z,100727.01
2018-08-24T01:44:16.232Z,100729.52
2018-08-24T01:46:43.653Z,100737.31
2018-08-24T01:49:11.412Z,100730.44
2018-08-24T01:51:38.836Z,100734.09
2018-08-24T01:54:06.333Z,100728.09
2018-08-24T01:56:33.977Z,100720.66
2018-08-24T01:59:01.436Z,100714.19
2018-08-24T02:01:28.957Z,100710.97
2018-08-24T02:03:56.628Z,100705.48
2018-08-24T02:06:24.106Z,100693.36
2018-08-24T02:08:51.737Z,100686.02
2018-08-24T02:11:24.820Z,100678.20
2018-08-24T02:13:58.010Z,100666.36
2018-08-24T02:16:28.374Z,100654.42
2018-08-24T02:19:01.362Z,100648.81
2018-08-24T02:21:34.350Z,100634.30
2018-08-24T02:24:02.079Z,100622.83
2018-08-24T02:26:29.508Z,100623.05
2018-08-24T02:28:57.042Z,100618.42
2018-08-24T02:31:24.694Z,100620.34
2018-08-24T02:33:52.150Z,100617.89
2018-08-24T02:36:19.729Z,100615.33
2018-08-24T02:38:47.287Z,100613.34
2018-08-24T02:41:15.029Z,100606.00
2018-08-24T02:43:42.532Z,100599.52
2018-08-24T02:46:10.327Z,100590.38
2018-08-24T02:48:37.832Z,100590.38
2018-08-24T02:51:05.355Z,100591.25
2018-08-24T02:53:33.016Z,100601.09
2018-08-24T02:56:00.694Z,100600.72
2018-08-24T02:58:28.117Z,100590.48
2018-08-24T03:00:55.727Z,100590.48
2018-08-24T03:03:23.154Z,100590.13
2018-08-24T03:05:50.624Z,100580.39
2018-08-24T03:08:18.426Z,100581.45
2018-08-24T03:10:45.973Z,100582.89
2018-08-24T03:13:13.418Z,100585.58
2018-08-24T03:15:41.083Z,100572.30
2018-08-24T03:18:08.581Z,100569.27
2018-08-24T03:20:36.010Z,100565.25
2018-08-24T03:23:03.654Z,100564.38
2018-08-24T03:25:31.091Z,100565.36
2018-08-24T03:27:58.562Z,100568.90
2018-08-24T03:30:26.085Z,100556.34
2018-08-24T03:32:53.537Z,100562.94
2018-08-24T03:35:20.954Z,100549.55
2018-08-24T03:37:48.634Z,100560.65
2018-08-24T03:40:16.108Z,100553.95
2018-08-24T03:42:43.767Z,100554.79
2018-08-24T03:45:11.438Z,100547.62
2018-08-24T03:47:38.978Z,100543.39
2018-08-24T03:50:06.490Z,100540.71
2018-08-24T03:52:34.058Z,100534.38
2018-08-24T03:55:01.502Z,100524.65
2018-08-24T03:57:28.936Z,100515.28
2018-08-24T03:59:56.696Z,100513.19
2018-08-24T04:02:24.194Z,100508.45
2018-08-24T04:04:51.651Z,100504.91
2018-08-24T04:07:19.396Z,100499.31
2018-08-24T04:09:46.856Z,100504.27
2018-08-24T04:12:14.338Z,100502.57
2018-08-24T04:14:42.056Z,100500.47
2018-08-24T04:17:14.967Z,100492.55
2018-08-24T04:19:42.711Z,100484.53
2018-08-24T04:22:10.168Z,100484.41
2018-08-24T04:24:37.613Z,100485.28
2018-08-24T04:27:05.326Z,100481.63
2018-08-24T04:29:32.748Z,100484.70
2018-08-24T04:32:00.204Z,100480.18
2018-08-24T04:34:27.863Z,100479.70
2018-08-24T04:36:55.330Z,100477.89
2018-08-24T04:39:22.798Z,100473.38
2018-08-24T04:41:50.522Z,100467.44
2018-08-24T04:44:18.145Z,100464.28
2018-08-24T04:46:45.612Z,100454.80
2018-08-24T04:49:13.234Z,100455.16
2018-08-24T04:51:40.717Z,100455.05
2018-08-24T04:54:08.121Z,100445.68
2018-08-24T04:56:35.756Z,100439.73
2018-08-24T04:59:03.264Z,100431.20
2018-08-24T05:01:30.715Z,100435.61
2018-08-24T05:03:59.313Z,100426.72
2018-08-24T05:06:26.733Z,100420.02
2018-08-24T05:08:55.187Z,100415.65
2018-08-24T05:11:22.687Z,100420.37
2018-08-24T05:13:50.231Z,100416.76
2018-08-24T05:16:17.745Z,100411.77
2018-08-24T05:18:45.479Z,100412.00
2018-08-24T05:21:12.974Z,100416.77
2018-08-24T05:23:40.446Z,100417.52
2018-08-24T05:26:08.144Z,100412.41
2018-08-24T05:28:35.593Z,100405.12
2018-08-24T05:31:03.063Z,100406.83
2018-08-24T05:33:30.812Z,100391.98
2018-08-24T05:35:58.306Z,100380.80
2018-08-24T05:38:25.722Z,100374.58
2018-08-24T05:40:53.478Z,100364.97
2018-08-24T05:43:21.085Z,100360.84
2018-08-24T05:45:48.722Z,100350.88
2018-08-24T05:48:16.432Z,100329.33
2018-08-24T05:50:43.961Z,100325.67
2018-08-24T05:53:11.508Z,100308.50
2018-08-24T05:55:39.651Z,100321.53
2018-08-24T05:58:07.642Z,100314.72
2018-08-24T06:00:36.230Z,100311.69
2018-08-24T06:03:03.968Z,100313.27
2018-08-24T06:05:31.431Z,100319.84
2018-08-24T06:07:58.895Z,100326.53
2018-08-24T06:10:26.573Z,100321.56
2018-08-24T06:12:54.047Z,100319.24
2018-08-24T06:15:21.522Z,100316.45
2018-08-24T06:17:49.198Z,100316.56
2018-08-24T06:20:16.716Z,100316.92
2018-08-24T06:22:44.193Z,100312.07
2018-08-24T06:25:12.157Z,100314.13
2018-08-24T06:27:39.595Z,100308.41
2018-08-24T06:30:07.263Z,100291.59
2018-08-24T06:32:34.877Z,100295.61
2018-08-24T06:35:02.355Z,100289.78
2018-08-24T06:37:29.979Z,100304.98
2018-08-24T06:39:57.532Z,100300.14
2018-08-24T06:42:25.198Z,100298.69
2018-08-24T06:44:52.623Z,100279.30
2018-08-24T06:47:20.549Z,100272.61
2018-08-24T06:49:47.979Z,100261.06
2018-08-24T06:52:15.448Z,100259.72
2018-08-24T06:54:42.979Z,100258.73
2018-08-24T06:57:10.433Z,100258.14
2018-08-24T06:59:37.923Z,100254.48
2018-08-24T07:02:05.584Z,100263.73
2018-08-24T07:04:33.016Z,100252.42
2018-08-24T07:07:00.472Z,100246.08
2018-08-24T07:09:28.224Z,100246.70
2018-08-24T07:11:55.818Z,100237.80
2018-08-24T07:14:23.233Z,100233.30
2018-08-24T07:16:55.403Z,100226.13
2018-08-24T07:19:22.844Z,100228.69
2018-08-24T07:21:50.254Z,100221.61
2018-08-24T07:24:17.994Z,100225.27
2018-08-24T07:26:45.459Z,100229.52
2018-08-24T07:29:12.904Z,100211.87
2018-08-24T07:31:40.487Z,100231.25
2018-08-24T07:34:07.915Z,100223.56
2018-08-24T07:36:35.402Z,100217.85
2018-08-24T07:39:03.326Z,100214.66
2018-08-24T07:41:30.828Z,100221.75
2018-08-24T07:43:58.302Z,100220.28
2018-08-24T07:46:25.935Z,100220.16
2018-08-24T07:48:53.668Z,100214.56
2018-08-24T07:51:21.286Z,100204.67
2018-08-24T07:53:48.914Z,100199.31
2018-08-24T07:56:16.352Z,100195.17
2018-08-24T07:58:43.954Z,100193.36
2018-08-24T08:01:11.599Z,100190.91
2018-08-24T08:03:39.049Z,100186.05
2018-08-24T08:06:06.569Z,100190.66
2018-08-24T08:08:34.320Z,100190.17
2018-08-24T08:11:01.848Z,100182.73
2018-08-24T08:13:29.298Z,100166.93
2018-08-24T08:15:56.911Z,100181.40
2018-08-24T08:18:24.449Z,100171.19
2018-08-24T08:20:51.890Z,100161.94
2018-08-24T08:23:19.649Z,100161.67
2018-08-24T08:25:47.143Z,100159.50
2018-08-24T08:28:14.573Z,100158.87
2018-08-24T08:30:42.365Z,100155.94
2018-08-24T08:33:09.844Z,100141.69
2018-08-24T08:35:37.293Z,100141.09
2018-08-24T08:38:05.213Z,100140.58
2018-08-24T08:40:32.604Z,100140.71
2018-08-24T08:43:00.339Z,100136.56
2018-08-24T08:45:28.041Z,100143.61
2018-08-24T08:47:55.569Z,100135.09
2018-08-24T08:50:23.148Z,100132.77
2018-08-24T08:52:50.662Z,100125.94
2018-08-24T08:55:18.217Z,100119.23
2018-08-24T08:57:45.651Z,100115.60
2018-08-24T09:00:13.314Z,100106.09
2018-08-24T09:02:40.767Z,100107.66
2018-08-24T09:05:08.285Z,100100.95
2018-08-24T09:07:35.992Z,100090.59
2018-08-24T09:10:03.597Z,100094.89
2018-08-24T09:12:31.063Z,100098.79
2018-08-24T09:14:58.570Z,100096.68
2018-08-24T09:17:31.477Z,100099.61
2018-08-24T09:20:04.622Z,100091.31
2018-08-24T09:22:38.989Z,100092.75
2018-08-24T09:25:12.092Z,100087.00
2018-08-24T09:27:44.868Z,100083.23
2018-08-24T09:30:12.406Z,100085.52
2018-08-24T09:32:39.973Z,100088.29
2018-08-24T09:35:07.619Z,100071.25
2018-08-24T09:37:37.226Z,100084.36
2018-08-24T09:40:05.381Z,100075.70
2018-08-24T09:42:33.094Z,100069.72
2018-08-24T09:45:00.588Z,100061.03
2018-08-24T09:47:33.466Z,100069.33
2018-08-24T09:50:06.390Z,100065.88
2018-08-24T09:52:34.082Z,100061.23
2018-08-24T09:55:01.573Z,100049.38
2018-08-24T09:57:29.051Z,100045.13
2018-08-24T09:59:56.724Z,100045.69
2018-08-24T10:02:25.367Z,100041.05
2018-08-24T10:04:58.398Z,100034.55
2018-08-24T10:07:31.084Z,100020.38
2018-08-24T10:09:58.660Z,100017.91
2018-08-24T10:12:26.182Z,100017.64
2018-08-24T10:14:53.879Z,100012.88
2018-08-24T10:17:25.192Z,100010.40
2018-08-24T10:19:52.979Z,99996.57
2018-08-24T10:22:20.730Z,99995.95
2018-08-24T10:24:48.242Z,99988.97
2018-08-24T10:27:15.739Z,99992.38
2018-08-24T10:29:43.531Z,99990.28
2018-08-24T10:32:10.949Z,99994.52
2018-08-24T10:34:38.490Z,99985.33
2018-08-24T10:37:05.995Z,100004.84
2018-08-24T10:39:33.456Z,99997.79
2018-08-24T10:42:00.914Z,99986.05
2018-08-24T10:44:28.521Z,99979.20
2018-08-24T10:46:56.020Z,99988.95
2018-08-24T10:49:23.657Z,99990.67
2018-08-24T10:51:51.289Z,100000.27
2018-08-24T10:54:18.779Z,99988.91
2018-08-24T10:56:46.256Z,99998.04
2018-08-24T10:59:14.062Z,99991.05
2018-08-24T11:01:41.550Z,99986.64
2018-08-24T11:04:09.029Z,99991.88
2018-08-24T11:06:36.778Z,99988.91
2018-08-24T11:09:06.550Z,99979.23
2018-08-24T11:11:34.061Z,99975.06
2018-08-24T11:14:01.694Z,99970.27
2018-08-24T11:16:29.150Z,99967.65
2018-08-24T11:18:56.604Z,99960.52
2018-08-24T11:21:24.321Z,99962.30
2018-08-24T11:23:51.816Z,99954.16
2018-08-24T11:26:19.366Z,99960.83
2018-08-24T11:28:47.025Z,99968.81
2018-08-24T11:31:14.533Z,99967.76
2018-08-24T11:33:41.979Z,99968.67
2018-08-24T11:36:09.681Z,99977.38
2018-08-24T11:38:37.055Z,99977.66
2018-08-24T11:41:04.699Z,99978.63
2018-08-24T11:43:32.339Z,99966.67
2018-08-24T11:45:59.884Z,99966.30
2018-08-24T11:48:28.044Z,99958.02
2018-08-24T11:50:56.306Z,99954.64
2018-08-24T11:53:23.933Z,99959.29
2018-08-24T11:55:51.691Z,99963.94
2018-08-24T11:58:19.223Z,99967.23
2018-08-24T12:00:46.683Z,99953.34
2018-08-24T12:03:14.147Z,99954.95
2018-08-24T12:05:41.750Z,99940.05
2018-08-24T12:08:09.399Z,99935.07
2018-08-24T12:10:36.716Z,99935.11
2018-08-24T12:13:04.405Z,99926.73
2018-08-24T12:15:31.874Z,99925.46
2018-08-24T12:17:59.431Z,99935.41
2018-08-24T12:20:27.138Z,99930.58
2018-08-24T12:22:54.729Z,99926.09
2018-08-24T12:25:22.181Z,99919.05
2018-08-24T12:27:49.828Z,99926.83
2018-08-24T12:30:17.313Z,99926.53
2018-08-24T12:32:44.745Z,99919.49
2018-08-24T12:35:12.441Z,99913.80
2018-08-24T12:37:42.734Z,99915.86
2018-08-24T12:40:10.311Z,99919.93
2018-08-24T12:42:37.965Z,99915.24
2018-08-24T12:45:05.468Z,99914.60
2018-08-24T12:47:32.945Z,99913.93
2018-08-24T12:50:00.652Z,99925.45
2018-08-24T12:52:28.105Z,99920.23
2018-08-24T12:54:55.552Z,99925.14
2018-08-24T12:57:28.284Z,99923.15
2018-08-24T12:59:56.016Z,99915.89
2018-08-24T13:02:23.465Z,99914.77
2018-08-24T13:04:51.069Z,99913.05
2018-08-24T13:07:18.530Z,99919.14
2018-08-24T13:09:46.194Z,99919.32
2018-08-24T13:12:13.827Z,99910.75
2018-08-24T13:14:41.287Z,99915.49
2018-08-24T13:17:08.756Z,99910.93
2018-08-24T13:19:36.387Z,99906.09
2018-08-24T13:22:03.887Z,99907.13
2018-08-24T13:24:31.297Z,99890.69
2018-08-24T13:26:59.007Z,99912.73
2018-08-24T13:29:26.533Z,99909.02
2018-08-24T13:31:54.012Z,99911.23
2018-08-24T13:34:21.605Z,99909.88
2018-08-24T13:36:49.109Z,99915.77
2018-08-24T13:39:16.558Z,99914.08
2018-08-24T13:41:44.389Z,99915.77
2018-08-24T13:44:11.944Z,99907.67
2018-08-24T13:46:39.395Z,99920.14
2018-08-24T13:49:07.170Z,99917.59
2018-08-24T13:51:34.615Z,99924.70
2018-08-24T13:54:02.088Z,99926.88
2018-08-24T13:56:29.687Z,99930.10
2018-08-24T13:58:57.343Z,99923.52
2018-08-24T14:01:24.816Z,99924.70
2018-08-24T14:03:52.485Z,99911.23
2018-08-24T14:06:19.947Z,99901.80
2018-08-24T14:08:47.424Z,99901.27
2018-08-24T14:11:15.023Z,99904.34
2018-08-24T14:13:42.446Z,99899.28
2018-08-24T14:16:09.937Z,99901.48
2018-08-24T14:18:37.589Z,99902.31
2018-08-24T14:21:05.244Z,99906.36
2018-08-24T14:23:32.844Z,99905.16
2018-08-24T14:26:00.641Z,99909.20
2018-08-24T14:28:28.095Z,99918.64
2018-08-24T14:30:55.591Z,99923.20
2018-08-24T14:33:23.143Z,99913.92
2018-08-24T14:35:50.841Z,99906.66
2018-08-24T14:38:18.382Z,99902.28
2018-08-24T14:40:45.903Z,99882.92
2018-08-24T14:43:13.480Z,99883.91
2018-08-24T14:45:40.934Z,99897.05
2018-08-24T14:48:08.609Z,99897.38
2018-08-24T14:50:36.121Z,99904.98
2018-08-24T14:53:03.687Z,99900.45
2018-08-24T14:55:31.416Z,99902.11
2018-08-24T14:57:58.914Z,99898.86
2018-08-24T15:00:26.699Z,99898.16
2018-08-24T15:02:54.434Z,99893.41
2018-08-24T15:05:22.019Z,99887.84
2018-08-24T15:07:49.534Z,99889.50
2018-08-24T15:10:17.195Z,99890.30
2018-08-24T15:12:44.630Z,99898.05
2018-08-24T15:15:12.095Z,99897.86
2018-08-24T15:17:39.742Z,99898.02
2018-08-24T15:20:07.581Z,99895.31
2018-08-24T15:22:35.107Z,99889.68
2018-08-24T15:25:02.703Z,99898.44
2018-08-24T15:27:30.171Z,99898.07
2018-08-24T15:29:58.030Z,99889.47
2018-08-24T15:32:25.644Z,99890.27
2018-08-24T15:34:53.078Z,99890.60
2018-08-24T15:37:20.927Z,99888.91
2018-08-24T15:39:48.442Z,99885.36
2018-08-24T15:42:15.982Z,99885.18
2018-08-24T15:44:43.613Z,99880.92
2018-08-24T15:47:11.558Z,99880.25
2018-08-24T15:49:39.053Z,99869.11
2018-08-24T15:52:06.555Z,99870.82
2018-08-24T15:54:34.196Z,99876.20
2018-08-24T15:57:01.680Z,99864.88
2018-08-24T15:59:29.182Z,99869.78
2018-08-24T16:01:56.869Z,99864.02
2018-08-24T16:04:24.354Z,99869.94
2018-08-24T16:06:51.906Z,99874.13
2018-08-24T16:09:19.485Z,99876.60
2018-08-24T16:11:46.935Z,99877.13
2018-08-24T16:14:14.386Z,99874.06
2018-08-24T16:16:42.282Z,99876.27
2018-08-24T16:19:09.702Z,99875.78
2018-08-24T16:21:37.132Z,99868.83
2018-08-24T16:24:04.878Z,99866.50
2018-08-24T16:26:32.500Z,99876.08
2018-08-24T16:28:59.946Z,99881.80
2018-08-24T16:31:27.659Z,99884.50
2018-08-24T16:33:55.177Z,99887.53
2018-08-24T16:36:22.606Z,99882.29
2018-08-24T16:38:50.334Z,99876.42
2018-08-24T16:41:17.850Z,99886.48
2018-08-24T16:43:45.302Z,99878.55
2018-08-24T16:46:12.959Z,99875.19
2018-08-24T16:48:40.457Z,99884.77
2018-08-24T16:51:08.301Z,99885.41
2018-08-24T16:53:35.859Z,99885.07
2018-08-24T16:56:03.356Z,99877.81
2018-08-24T16:58:30.938Z,99883.88
2018-08-24T17:00:58.539Z,99886.56
2018-08-24T17:03:26.051Z,99876.77
2018-08-24T17:05:53.505Z,99890.88
2018-08-24T17:08:21.132Z,99889.19
2018-08-24T17:10:48.557Z,99894.58
2018-08-24T17:13:16.010Z,99894.23
2018-08-24T17:15:43.819Z,99896.93
2018-08-24T17:18:11.213Z,99900.97
2018-08-24T17:20:38.795Z,99893.87
2018-08-24T17:23:06.463Z,99890.83
2018-08-24T17:25:33.943Z,99885.78
2018-08-24T17:28:01.373Z,99869.63
2018-08-24T17:30:29.186Z,99869.14
2018-08-24T17:32:56.662Z,99876.36
2018-08-24T17:35:24.117Z,99861.41
2018-08-24T17:37:51.688Z,99860.58
2018-08-24T17:40:19.139Z,99856.17
2018-08-24T17:42:46.562Z,99853.30
2018-08-24T17:45:14.190Z,99857.48
2018-08-24T17:47:41.691Z,99861.52
2018-08-24T17:50:09.519Z,99854.05
2018-08-24T17:52:37.082Z,99854.64
2018-08-24T17:55:04.614Z,99838.00
2018-08-24T17:57:32.144Z,99848.09
2018-08-24T17:59:59.733Z,99844.91
2018-08-24T18:02:27.237Z,99839.19
2018-08-24T18:04:54.705Z,99842.38
2018-08-24T18:07:22.343Z,99852.66
2018-08-24T18:09:49.767Z,99854.64
2018-08-24T18:12:17.253Z,99867.39
2018-08-24T18:14:44.906Z,99869.19
2018-08-24T18:17:12.380Z,99873.23
2018-08-24T18:19:39.841Z,99880.97
2018-08-24T18:22:07.491Z,99876.22
2018-08-24T18:24:34.971Z,99870.35
2018-08-24T18:27:02.542Z,99858.23
2018-08-24T18:29:30.287Z,99857.91
2018-08-24T18:31:57.891Z,99866.95
2018-08-24T18:34:25.378Z,99884.97
2018-08-24T18:36:53.267Z,99899.06
2018-08-24T18:39:20.775Z,99901.42
2018-08-24T18:41:48.314Z,99900.52
2018-08-24T18:44:16.048Z,99895.58
2018-08-24T18:46:43.474Z,99902.31
2018-08-24T18:49:10.883Z,99885.67
2018-08-24T18:51:38.425Z,99902.72
2018-08-24T18:54:06.021Z,99904.22
2018-08-24T18:56:33.605Z,99904.17
2018-08-24T18:59:01.203Z,99885.83
2018-08-24T19:01:28.764Z,99882.16
2018-08-24T19:03:56.338Z,99874.77
2018-08-24T19:06:24.018Z,99867.21
2018-08-24T19:08:51.434Z,99860.11
2018-08-24T19:11:24.425Z,99848.86
2018-08-24T19:13:51.976Z,99837.61
2018-08-24T19:16:19.461Z,99839.11
2018-08-24T19:18:52.628Z,99836.91
2018-08-24T19:21:25.654Z,99848.16
2018-08-24T19:23:53.291Z,99833.35
2018-08-24T19:26:20.820Z,99835.37
2018-08-24T19:28:53.947Z,99828.79
2018-08-24T19:31:21.541Z,99830.28
2018-08-24T19:33:49.173Z,99832.75
2018-08-24T19:36:16.628Z,99838.80
2018-08-24T19:38:44.254Z,99827.67
2018-08-24T19:41:17.332Z,99829.39
2018-08-24T19:43:44.812Z,99824.00
2018-08-24T19:46:12.564Z,99830.21
2018-08-24T19:48:45.620Z,99835.59
2018-08-24T19:51:13.093Z,99827.52
2018-08-24T19:53:40.720Z,99827.52
2018-08-24T19:56:08.186Z,99823.63
2018-08-24T19:58:41.243Z,99815.71
2018-08-24T20:01:09.202Z,99818.55
2018-08-24T20:03:36.671Z,99813.55
2018-08-24T20:06:09.885Z,99810.48
2018-08-24T20:08:42.869Z,99805.63
2018-08-24T20:11:10.475Z,99804.13
2018-08-24T20:13:37.941Z,99808.02
2018-08-24T20:16:11.055Z,99807.49
2018-08-24T20:18:38.698Z,99813.58
2018-08-24T20:21:06.196Z,99805.66
2018-08-24T20:23:33.667Z,99803.61
2018-08-24T20:26:01.355Z,99795.05
2018-08-24T20:28:28.843Z,99793.36
2018-08-24T20:30:56.419Z,99788.47
2018-08-24T20:33:23.879Z,99790.97
2018-08-24T20:35:51.382Z,99795.02
2018-08-24T20:38:18.809Z,99797.81
2018-08-24T20:40:46.327Z,99795.13
2018-08-24T20:43:13.776Z,99792.59
2018-08-24T20:45:41.282Z,99795.28
2018-08-24T20:48:08.945Z,99791.88
2018-08-24T20:50:36.401Z,99795.20
2018-08-24T20:53:04.020Z,99788.85
2018-08-24T20:55:31.817Z,99786.02
2018-08-24T20:57:59.264Z,99777.80
2018-08-24T21:00:26.667Z,99787.55
2018-08-24T21:02:54.231Z,99778.98
2018-08-24T21:05:21.637Z,99788.28
2018-08-24T21:07:49.083Z,99786.42
2018-08-24T21:10:16.738Z,99791.66
2018-08-24T21:12:44.122Z,99797.03
2018-08-24T21:15:11.630Z,99797.55
2018-08-24T21:17:39.285Z,99794.48
2018-08-24T21:20:06.755Z,99784.92
2018-08-24T21:22:34.249Z,99783.58
2018-08-24T21:25:01.765Z,99790.53
2018-08-24T21:27:29.276Z,99798.59
2018-08-24T21:29:56.789Z,99790.38
2018-08-24T21:32:24.514Z,99789.38
2018-08-24T21:34:51.892Z,99793.41
2018-08-24T21:37:19.454Z,99791.72
2018-08-24T21:39:46.950Z,99793.41
2018-08-24T21:42:14.383Z,99787.87
2018-08-24T21:44:41.862Z,99784.70
2018-08-24T21:47:09.393Z,99776.81
2018-08-24T21:49:36.842Z,99779.02
2018-08-24T21:52:04.296Z,99771.28
2018-08-24T21:54:31.926Z,99761.38
2018-08-24T21:56:59.327Z,99757.19
2018-08-24T21:59:26.781Z,99751.80
2018-08-24T22:01:54.485Z,99754.83
2018-08-24T22:04:21.962Z,99759.20
2018-08-24T22:06:49.406Z,99755.88
2018-08-24T22:09:17.041Z,99761.44
2018-08-24T22:11:44.586Z,99752.88
2018-08-24T22:14:12.056Z,99738.42
2018-08-24T22:16:39.718Z,99732.06
2018-08-24T22:19:07.206Z,99724.32
2018-08-24T22:21:34.653Z,99714.41
2018-08-24T22:24:02.330Z,99712.58
2018-08-24T22:26:29.822Z,99701.45
2018-08-24T22:28:57.284Z,99698.11
2018-08-24T22:31:25.035Z,99698.60
2018-08-24T22:33:52.561Z,99695.09
2018-08-24T22:36:19.983Z,99693.89
2018-08-24T22:38:47.724Z,99691.88
2018-08-24T22:41:15.245Z,99678.42
2018-08-24T22:43:42.677Z,99664.97
2018-08-24T22:46:10.338Z,99665.82
2018-08-24T22:48:37.833Z,99662.12
2018-08-24T22:51:05.304Z,99661.30
2018-08-24T22:53:32.926Z,99666.16
2018-08-24T22:56:00.449Z,99665.82
2018-08-24T22:58:27.904Z,99668.84
2018-08-24T23:00:55.521Z,99663.31
2018-08-24T23:03:22.987Z,99659.27
2018-08-24T23:05:50.411Z,99663.16
2018-08-24T23:08:18.043Z,99654.59
2018-08-24T23:10:45.546Z,99653.58
2018-08-24T23:13:12.992Z,99656.27
2018-08-24T23:15:40.590Z,99663.86
2018-08-24T23:18:08.113Z,99671.78
2018-08-24T23:20:35.555Z,99670.92
2018-08-24T23:23:03.288Z,99660.86
2018-08-24T23:25:30.824Z,99654.98
2018-08-24T23:27:58.229Z,99655.47
2018-08-24T23:30:26.131Z,99624.44
2018-08-24T23:32:53.582Z,99635.47
2018-08-24T23:35:21.076Z,99631.42
2018-08-24T23:37:48.682Z,99620.50
2018-08-24T23:40:16.314Z,99615.98
2018-08-24T23:42:43.764Z,99614.14
2018-08-24T23:45:11.331Z,99609.09
2018-08-24T23:47:38.776Z,99613.98
2018-08-24T23:50:06.527Z,99608.08
2018-08-24T23:52:34.058Z,99604.41
2018-08-24T23:55:01.510Z,99597.52
2018-08-24T23:57:28.968Z,99602.38
2018-08-24T23:59:56.657Z,99609.11
